Aviation Digital Data Service (ADDS)

Output produced by METARs form (1812 UTC 14 August 2018)
found at http://www.aviationweather.gov/adds/metars/
 
KBID 141756Z AUTO 19011KT 10SM CLR 28/24 A2989 RMK AO2 SLP123 T02780239 10278 20244 58009
KUUU 141753Z AUTO 17011KT 10SM FEW014 FEW021 SCT026 28/24 A2988 RMK AO2 SLP116 60002 T02780244 10278 20239 58010
KOQU 141750Z 21016KT 12SM BKN021 27/23 A2987
KSFZ 141756Z AUTO 00000KT 10SM BKN022 OVC027 24/23 A2988 RMK AO2 LTG DSNT N TSE1657RAB21E40 SLP061 P0004 60057 T02440228 10272 20217 58013
KPVD 141751Z 18011KT 10SM FEW016 FEW023 SCT050TCU BKN300 28/23 A2987 RMK AO2 RAB13E24 SLP114 TCU ALQDS P0000 60000 T02780233 10289 20233 58011
KPVD 141740Z 1418/1518 17014G20KT P6SM VCSH SCT020 BKN045 
     FM150000 20005KT P6SM BKN200 
     FM151100 26004KT P6SM BKN045
       
KWST 141753Z AUTO 18010KT 10SM CLR 28/23 A2988 RMK AO2 SLP117 T02780233 10283 20239 58011